Time;durP1;ratioP1;P1;durP2;ratioP2;P2;SDS_P1;SDS_P2;PMS_P1;PMS_P2;Temp;Humidity;BMP_temperature;BMP_pressure;BME280_temperature;BME280_humidity;BME280_pressure;Samples;Min_cycle;Max_cycle;Signal;HPM_P1;HPM_P2
2023/12/24 00:00:22;;;;;;;3.38;2.00;;;;;;;;;;5023515;28;20027;-57
2023/12/24 00:02:47;;;;;;;2.70;1.75;;;;;;;;;;5007284;28;20414;-57
2023/12/24 00:05:13;;;;;;;2.47;1.70;;;;;;;;;;5025393;28;20025;-56
2023/12/24 00:07:38;;;;;;;2.67;1.80;;;;;;;;;;5025532;28;20033;-56
2023/12/24 00:10:04;;;;;;;2.58;1.85;;;;;;;;;;5025629;28;20029;-56
2023/12/24 00:12:29;;;;;;;2.80;1.80;;;;;;;;;;5024997;28;20024;-56
2023/12/24 00:14:54;;;;;;;3.13;1.80;;;;;;;;;;5025162;28;20021;-56
2023/12/24 00:17:20;;;;;;;3.65;1.90;;;;;;;;;;5025105;28;20022;-56
2023/12/24 00:19:45;;;;;;;3.25;2.08;;;;;;;;;;5025235;28;20397;-56
2023/12/24 00:22:11;;;;;;;2.85;1.67;;;;;;;;;;5014704;28;20021;-56
2023/12/24 00:24:36;;;;;;;3.13;1.70;;;;;;;;;;5023700;28;20014;-57
2023/12/24 00:27:02;;;;;;;3.30;1.77;;;;;;;;;;5013279;28;20064;-57
2023/12/24 00:29:27;;;;;;;2.25;1.60;;;;;;;;;;5005527;28;20096;-57
2023/12/24 00:31:52;;;;;;;3.08;1.67;;;;;;;;;;5023784;28;20112;-57
2023/12/24 00:34:18;;;;;;;2.92;2.00;;;;;;;;;;5024560;28;20110;-56
2023/12/24 00:36:43;;;;;;;2.53;1.60;;;;;;;;;;5023918;28;20033;-57
2023/12/24 00:39:09;;;;;;;3.45;1.85;;;;;;;;;;5025325;28;20029;-57
2023/12/24 00:41:34;;;;;;;2.40;1.52;;;;;;;;;;5022495;28;20029;-57
2023/12/24 00:43:59;;;;;;;3.25;1.98;;;;;;;;;;5024145;28;20038;-56
2023/12/24 00:46:24;;;;;;;2.75;1.80;;;;;;;;;;5008876;28;20511;-56
2023/12/24 00:48:50;;;;;;;3.05;1.67;;;;;;;;;;5019978;28;20041;-57
2023/12/24 00:51:15;;;;;;;3.08;1.80;;;;;;;;;;5023948;28;20071;-56
2023/12/24 00:53:40;;;;;;;2.38;1.50;;;;;;;;;;5023807;28;20122;-57
2023/12/24 00:56:06;;;;;;;2.75;1.77;;;;;;;;;;5024442;28;20038;-56
2023/12/24 00:58:31;;;;;;;2.80;1.83;;;;;;;;;;5024953;28;20103;-56
2023/12/24 01:00:57;;;;;;;3.05;1.80;;;;;;;;;;5023953;28;20038;-56
2023/12/24 01:03:22;;;;;;;2.90;1.70;;;;;;;;;;5022722;28;20037;-56
2023/12/24 01:05:47;;;;;;;2.70;1.75;;;;;;;;;;5022889;28;20464;-56
2023/12/24 01:08:13;;;;;;;3.15;1.70;;;;;;;;;;5024484;28;20049;-56
2023/12/24 01:10:39;;;;;;;2.80;1.60;;;;;;;;;;5019917;28;20521;-56
2023/12/24 01:13:04;;;;;;;2.75;1.48;;;;;;;;;;5015120;28;20033;-56
2023/12/24 01:15:29;;;;;;;2.72;1.60;;;;;;;;;;5026816;28;20052;-56
2023/12/24 01:17:55;;;;;;;3.55;1.60;;;;;;;;;;5034059;28;20045;-56
2023/12/24 01:20:39;;;;;;;2.25;1.70;;;;;;;;;;5032930;28;20504;-56
2023/12/24 01:23:05;;;;;;;2.15;1.55;;;;;;;;;;5044458;28;20124;-55
2023/12/24 01:25:30;;;;;;;3.30;1.67;;;;;;;;;;5019577;28;20116;-56
2023/12/24 01:27:55;;;;;;;2.50;1.70;;;;;;;;;;5024499;28;20045;-56
2023/12/24 01:30:21;;;;;;;3.22;1.73;;;;;;;;;;5025413;28;20144;-56
2023/12/24 01:32:46;;;;;;;2.53;1.60;;;;;;;;;;5023608;28;20030;-56
2023/12/24 01:35:11;;;;;;;3.03;1.73;;;;;;;;;;5024084;28;20040;-56
2023/12/24 01:37:37;;;;;;;2.60;1.70;;;;;;;;;;5023103;28;20045;-56
2023/12/24 01:40:02;;;;;;;2.15;1.45;;;;;;;;;;5038851;28;20044;-57
2023/12/24 01:42:27;;;;;;;2.53;1.90;;;;;;;;;;5003692;28;20045;-57
2023/12/24 01:44:53;;;;;;;1.92;1.35;;;;;;;;;;5022824;28;20045;-56
2023/12/24 01:47:18;;;;;;;2.92;1.73;;;;;;;;;;5021335;28;20120;-56
2023/12/24 01:49:45;;;;;;;3.13;1.60;;;;;;;;;;5025361;28;20465;-56
2023/12/24 01:52:11;;;;;;;2.58;1.55;;;;;;;;;;5033538;28;20069;-57
2023/12/24 01:54:36;;;;;;;3.00;1.58;;;;;;;;;;5026252;28;20127;-56
2023/12/24 01:57:01;;;;;;;2.28;1.40;;;;;;;;;;5025024;28;20033;-57
2023/12/24 01:59:26;;;;;;;2.53;1.63;;;;;;;;;;5009977;28;20029;-57
2023/12/24 02:01:52;;;;;;;2.47;1.60;;;;;;;;;;5025997;28;20053;-56
2023/12/24 02:04:18;;;;;;;2.58;1.50;;;;;;;;;;5025026;28;20076;-56
2023/12/24 02:06:43;;;;;;;2.10;1.50;;;;;;;;;;5027045;28;20053;-57
2023/12/24 02:09:09;;;;;;;2.40;1.55;;;;;;;;;;5042296;28;20033;-56
2023/12/24 02:11:34;;;;;;;2.33;1.45;;;;;;;;;;5026950;28;20033;-56
2023/12/24 02:14:00;;;;;;;2.70;1.45;;;;;;;;;;5026532;28;20029;-56
2023/12/24 02:16:25;;;;;;;2.85;1.40;;;;;;;;;;5027254;28;20037;-56
2023/12/24 02:18:50;;;;;;;2.10;1.42;;;;;;;;;;5026514;28;20511;-56
2023/12/24 02:21:16;;;;;;;2.20;1.48;;;;;;;;;;5025280;28;20041;-56
2023/12/24 02:23:41;;;;;;;2.10;1.50;;;;;;;;;;5013358;28;20059;-56
2023/12/24 02:26:08;;;;;;;2.13;1.50;;;;;;;;;;5027647;28;20429;-57
2023/12/24 02:28:37;;;;;;;2.30;1.45;;;;;;;;;;5025065;28;20062;-56
2023/12/24 02:31:03;;;;;;;1.90;1.15;;;;;;;;;;5000379;28;20045;-55
2023/12/24 02:33:29;;;;;;;2.55;1.52;;;;;;;;;;5010853;28;20048;-56
2023/12/24 02:35:54;;;;;;;2.00;1.48;;;;;;;;;;5023578;28;20026;-56
2023/12/24 02:38:20;;;;;;;2.47;1.48;;;;;;;;;;5019423;28;20527;-57
2023/12/24 02:40:45;;;;;;;2.92;1.60;;;;;;;;;;5053472;28;20036;-56
2023/12/24 02:43:10;;;;;;;2.53;1.52;;;;;;;;;;5037311;28;20114;-57
2023/12/24 02:45:35;;;;;;;1.77;1.30;;;;;;;;;;5021954;28;20144;-57
2023/12/24 02:48:01;;;;;;;2.20;1.40;;;;;;;;;;5020364;28;20081;-56
2023/12/24 02:50:26;;;;;;;2.00;1.40;;;;;;;;;;5022957;28;20516;-57
2023/12/24 02:52:51;;;;;;;2.47;1.50;;;;;;;;;;5025733;28;20565;-56
2023/12/24 02:55:17;;;;;;;1.92;1.30;;;;;;;;;;5026493;28;20029;-56
2023/12/24 02:57:42;;;;;;;1.88;1.20;;;;;;;;;;5026398;28;20033;-56
2023/12/24 03:00:11;;;;;;;1.90;1.42;;;;;;;;;;5021033;28;20046;-56
2023/12/24 03:02:36;;;;;;;2.20;1.30;;;;;;;;;;5016230;28;20033;-56
2023/12/24 03:05:01;;;;;;;2.13;1.33;;;;;;;;;;5025028;28;20034;-56
2023/12/24 03:07:30;;;;;;;2.28;1.55;;;;;;;;;;5026210;28;20486;-57
2023/12/24 03:09:55;;;;;;;1.80;1.10;;;;;;;;;;5025599;28;20087;-57
2023/12/24 03:12:21;;;;;;;2.50;1.48;;;;;;;;;;5026296;28;20866;-57
2023/12/24 03:14:46;;;;;;;2.17;1.38;;;;;;;;;;5024911;28;20107;-58
2023/12/24 03:17:11;;;;;;;2.60;1.50;;;;;;;;;;5040785;28;20144;-57
2023/12/24 03:19:37;;;;;;;2.60;1.42;;;;;;;;;;5023958;28;21032;-58
2023/12/24 03:22:03;;;;;;;1.60;1.00;;;;;;;;;;5025544;28;20574;-57
2023/12/24 03:24:28;;;;;;;2.00;1.30;;;;;;;;;;5016259;28;20042;-56
2023/12/24 03:26:53;;;;;;;2.20;1.13;;;;;;;;;;5021346;28;20455;-56
2023/12/24 03:29:19;;;;;;;2.00;1.17;;;;;;;;;;5025289;28;20037;-57
2023/12/24 03:31:44;;;;;;;2.42;1.30;;;;;;;;;;5024580;28;20115;-56
2023/12/24 03:34:09;;;;;;;2.38;1.27;;;;;;;;;;5018652;28;20560;-56
2023/12/24 03:36:35;;;;;;;1.92;1.35;;;;;;;;;;5025667;28;20687;-56
2023/12/24 03:39:00;;;;;;;2.55;1.30;;;;;;;;;;5031650;28;20029;-56
2023/12/24 03:41:25;;;;;;;2.50;1.20;;;;;;;;;;5041062;28;20037;-56
2023/12/24 03:43:51;;;;;;;2.38;1.42;;;;;;;;;;5045637;28;20029;-56
2023/12/24 03:46:19;;;;;;;1.75;1.08;;;;;;;;;;5044832;28;20440;-57
2023/12/24 03:48:44;;;;;;;2.50;1.25;;;;;;;;;;5021464;28;20041;-56
2023/12/24 03:51:11;;;;;;;2.15;1.23;;;;;;;;;;5045515;28;20536;-56
2023/12/24 03:53:37;;;;;;;2.03;1.38;;;;;;;;;;5036230;28;20087;-56
2023/12/24 03:56:02;;;;;;;2.78;1.33;;;;;;;;;;5028125;28;20034;-56
2023/12/24 03:58:27;;;;;;;2.25;1.40;;;;;;;;;;5046865;28;20041;-57
2023/12/24 04:00:53;;;;;;;2.30;1.23;;;;;;;;;;5043506;28;20122;-56
2023/12/24 04:03:18;;;;;;;2.00;1.27;;;;;;;;;;5045450;28;20037;-57
2023/12/24 04:05:43;;;;;;;1.40;0.98;;;;;;;;;;5044890;28;20433;-57
2023/12/24 04:08:09;;;;;;;2.47;1.23;;;;;;;;;;5044706;28;20107;-56
2023/12/24 04:10:39;;;;;;;1.75;0.98;;;;;;;;;;5027261;28;20033;-57
2023/12/24 04:13:04;;;;;;;1.48;0.90;;;;;;;;;;5040294;28;20202;-57
2023/12/24 04:15:30;;;;;;;1.80;1.15;;;;;;;;;;5033603;28;20585;-56
2023/12/24 04:17:55;;;;;;;2.00;1.30;;;;;;;;;;5033879;28;20501;-56
2023/12/24 04:20:20;;;;;;;1.50;1.00;;;;;;;;;;5028965;28;20121;-57
2023/12/24 04:22:46;;;;;;;2.28;1.20;;;;;;;;;;5025957;28;20033;-56
2023/12/24 04:25:11;;;;;;;2.15;1.30;;;;;;;;;;5042306;28;20064;-56
2023/12/24 04:27:36;;;;;;;1.33;0.90;;;;;;;;;;5043417;28;20059;-57
2023/12/24 04:30:02;;;;;;;1.90;1.00;;;;;;;;;;5044107;28;20033;-56
2023/12/24 04:32:27;;;;;;;1.70;1.20;;;;;;;;;;5045423;28;20041;-56
2023/12/24 04:34:52;;;;;;;2.13;1.00;;;;;;;;;;5043292;28;20040;-57
2023/12/24 04:37:18;;;;;;;1.38;0.90;;;;;;;;;;5044447;28;20137;-56
2023/12/24 04:39:43;;;;;;;1.75;1.20;;;;;;;;;;5037104;28;20064;-57
2023/12/24 04:42:08;;;;;;;1.80;1.00;;;;;;;;;;5024992;28;20033;-57
2023/12/24 04:44:36;;;;;;;2.05;1.02;;;;;;;;;;5026133;28;20029;-57
2023/12/24 04:47:02;;;;;;;1.63;0.95;;;;;;;;;;5041837;28;20045;-57
2023/12/24 04:49:27;;;;;;;1.42;0.85;;;;;;;;;;5030378;28;20082;-57
2023/12/24 04:51:53;;;;;;;1.45;0.95;;;;;;;;;;5023837;28;20041;-57
2023/12/24 04:54:19;;;;;;;1.95;1.02;;;;;;;;;;5024490;28;20057;-57
2023/12/24 04:56:44;;;;;;;1.83;1.10;;;;;;;;;;5023961;28;20030;-57
2023/12/24 04:59:10;;;;;;;1.42;0.93;;;;;;;;;;5043716;28;20588;-57
2023/12/24 05:01:35;;;;;;;1.90;0.90;;;;;;;;;;5024805;28;20065;-57
2023/12/24 05:04:00;;;;;;;1.42;0.90;;;;;;;;;;5037924;28;20102;-57
2023/12/24 05:06:29;;;;;;;1.63;0.90;;;;;;;;;;5027962;28;20795;-57
2023/12/24 05:08:54;;;;;;;1.52;1.00;;;;;;;;;;5057236;28;20047;-57
2023/12/24 05:11:20;;;;;;;1.60;0.90;;;;;;;;;;5027272;28;20164;-59
2023/12/24 05:13:45;;;;;;;2.05;1.10;;;;;;;;;;5024609;28;20422;-56
2023/12/24 05:16:10;;;;;;;1.55;1.10;;;;;;;;;;5023938;28;20055;-56
2023/12/24 05:18:35;;;;;;;1.70;1.10;;;;;;;;;;5040278;28;20079;-56
2023/12/24 05:21:01;;;;;;;1.67;0.80;;;;;;;;;;5044308;28;20041;-56
2023/12/24 05:23:26;;;;;;;1.05;0.70;;;;;;;;;;5042718;28;20420;-56
2023/12/24 05:25:52;;;;;;;1.20;0.90;;;;;;;;;;5032836;28;20132;-56
2023/12/24 05:28:17;;;;;;;1.48;0.75;;;;;;;;;;5034140;28;20051;-56
2023/12/24 05:30:43;;;;;;;1.45;1.00;;;;;;;;;;5039028;28;20563;-56
2023/12/24 05:33:09;;;;;;;1.40;0.90;;;;;;;;;;5048709;28;20041;-56
2023/12/24 05:35:34;;;;;;;1.20;0.90;;;;;;;;;;5040621;28;20033;-56
2023/12/24 05:37:59;;;;;;;1.15;0.65;;;;;;;;;;5043757;28;20108;-56
2023/12/24 05:40:24;;;;;;;1.67;0.82;;;;;;;;;;5041567;28;20034;-56
2023/12/24 05:42:50;;;;;;;1.65;1.00;;;;;;;;;;5028872;28;20579;-56
2023/12/24 05:45:15;;;;;;;1.15;0.80;;;;;;;;;;5047757;28;20048;-56
2023/12/24 05:47:40;;;;;;;1.33;0.73;;;;;;;;;;5049207;28;20075;-56
2023/12/24 05:50:06;;;;;;;1.50;0.80;;;;;;;;;;5054210;28;20084;-56
2023/12/24 05:52:32;;;;;;;1.48;0.80;;;;;;;;;;5047628;28;20052;-56
2023/12/24 05:54:57;;;;;;;1.15;0.70;;;;;;;;;;5044393;28;20043;-56
2023/12/24 05:57:22;;;;;;;1.17;0.77;;;;;;;;;;5041660;28;20032;-56
2023/12/24 05:59:48;;;;;;;1.38;0.70;;;;;;;;;;5037784;28;20520;-56
2023/12/24 06:02:13;;;;;;;1.60;0.90;;;;;;;;;;5027716;28;20493;-55
2023/12/24 06:04:38;;;;;;;2.13;0.85;;;;;;;;;;5035751;28;20073;-56
2023/12/24 06:07:04;;;;;;;1.55;0.82;;;;;;;;;;5046299;28;20041;-56
2023/12/24 06:09:30;;;;;;;1.90;1.08;;;;;;;;;;5045612;28;20032;-55
2023/12/24 06:11:55;;;;;;;1.38;0.80;;;;;;;;;;5046235;28;20063;-56
2023/12/24 06:14:20;;;;;;;1.23;0.70;;;;;;;;;;5047013;28;20071;-57
2023/12/24 06:16:46;;;;;;;1.52;0.90;;;;;;;;;;5030428;28;20133;-57
2023/12/24 06:19:11;;;;;;;1.00;0.80;;;;;;;;;;5044416;28;20053;-57
2023/12/24 06:21:36;;;;;;;1.35;0.90;;;;;;;;;;5027341;28;20111;-57
2023/12/24 06:24:02;;;;;;;1.75;0.90;;;;;;;;;;5038145;28;20125;-57
2023/12/24 06:26:27;;;;;;;1.10;0.68;;;;;;;;;;5037679;28;20048;-57
2023/12/24 06:28:53;;;;;;;1.45;0.68;;;;;;;;;;5040355;28;20053;-57
2023/12/24 06:31:19;;;;;;;1.73;0.77;;;;;;;;;;5026785;28;20040;-57
2023/12/24 06:33:44;;;;;;;2.05;0.80;;;;;;;;;;5026242;28;20434;-57
2023/12/24 06:36:10;;;;;;;1.23;0.80;;;;;;;;;;5032197;28;20065;-57
2023/12/24 06:38:35;;;;;;;1.38;0.70;;;;;;;;;;5027584;28;20120;-57
2023/12/24 06:41:01;;;;;;;3.22;0.80;;;;;;;;;;5025148;28;20149;-57
2023/12/24 06:43:26;;;;;;;1.20;0.70;;;;;;;;;;5036966;28;20033;-57
2023/12/24 06:45:52;;;;;;;2.08;0.60;;;;;;;;;;5029181;28;20033;-57
2023/12/24 06:48:17;;;;;;;1.25;0.63;;;;;;;;;;5026349;28;20598;-57
2023/12/24 06:50:42;;;;;;;0.80;0.50;;;;;;;;;;5027716;28;20616;-57
2023/12/24 06:53:08;;;;;;;0.77;0.60;;;;;;;;;;5030729;28;20037;-57
2023/12/24 06:55:33;;;;;;;1.20;0.77;;;;;;;;;;5030421;28;20639;-57
2023/12/24 06:57:58;;;;;;;1.05;0.60;;;;;;;;;;5028623;28;20521;-57
2023/12/24 07:00:24;;;;;;;0.90;0.57;;;;;;;;;;5028942;28;20532;-57
2023/12/24 07:02:49;;;;;;;2.10;0.90;;;;;;;;;;5044275;28;20060;-58
2023/12/24 07:05:14;;;;;;;2.15;0.63;;;;;;;;;;5034732;28;20040;-57
2023/12/24 07:07:40;;;;;;;1.70;0.60;;;;;;;;;;5030300;28;20171;-56
2023/12/24 07:10:05;;;;;;;1.20;0.65;;;;;;;;;;5027235;28;20040;-57
2023/12/24 07:12:31;;;;;;;1.42;0.50;;;;;;;;;;5031008;28;20087;-58
2023/12/24 07:14:56;;;;;;;1.48;0.60;;;;;;;;;;5041213;28;20042;-58
2023/12/24 07:17:22;;;;;;;1.23;0.70;;;;;;;;;;5029291;28;20033;-58
2023/12/24 07:19:47;;;;;;;2.60;0.70;;;;;;;;;;5027663;28;20526;-57
2023/12/24 07:22:16;;;;;;;2.10;0.63;;;;;;;;;;5042896;28;20068;-58
2023/12/24 07:24:41;;;;;;;1.77;0.95;;;;;;;;;;5031021;28;20128;-57
2023/12/24 07:27:07;;;;;;;1.70;0.60;;;;;;;;;;5038488;28;20053;-57
2023/12/24 07:29:32;;;;;;;2.58;0.90;;;;;;;;;;5028165;28;20039;-57
2023/12/24 07:31:57;;;;;;;1.58;0.80;;;;;;;;;;5030861;28;20033;-57
2023/12/24 07:34:22;;;;;;;1.73;0.80;;;;;;;;;;5028169;28;20045;-57
2023/12/24 07:36:48;;;;;;;2.03;0.63;;;;;;;;;;5026304;28;20061;-57
2023/12/24 07:39:13;;;;;;;1.40;0.77;;;;;;;;;;5029076;28;20489;-57
2023/12/24 07:41:39;;;;;;;2.92;0.90;;;;;;;;;;5028564;28;20033;-57
2023/12/24 07:44:04;;;;;;;2.38;0.85;;;;;;;;;;5029745;28;20066;-57
2023/12/24 07:46:29;;;;;;;2.38;0.70;;;;;;;;;;5030463;28;20117;-57
2023/12/24 07:48:55;;;;;;;1.25;0.60;;;;;;;;;;5026202;28;20056;-57
2023/12/24 07:51:20;;;;;;;2.20;0.60;;;;;;;;;;5026643;28;20037;-57
2023/12/24 07:53:45;;;;;;;3.00;0.63;;;;;;;;;;5012819;28;20464;-57
2023/12/24 07:56:11;;;;;;;2.13;0.80;;;;;;;;;;5042951;28;20120;-57
2023/12/24 07:58:37;;;;;;;1.20;0.60;;;;;;;;;;5026156;28;20216;-57
2023/12/24 08:01:02;;;;;;;1.05;0.60;;;;;;;;;;5029067;28;20429;-58
2023/12/24 08:03:28;;;;;;;2.50;0.70;;;;;;;;;;5041568;28;20021;-58
2023/12/24 08:05:53;;;;;;;1.60;0.82;;;;;;;;;;5028489;28;20481;-57
2023/12/24 08:08:18;;;;;;;1.48;0.80;;;;;;;;;;5032513;28;20421;-57
2023/12/24 08:10:44;;;;;;;2.03;0.90;;;;;;;;;;5043802;28;20021;-57
2023/12/24 08:13:09;;;;;;;1.35;0.80;;;;;;;;;;5027944;28;20029;-57
2023/12/24 08:15:34;;;;;;;1.25;0.70;;;;;;;;;;5026627;28;20108;-57
2023/12/24 08:18:00;;;;;;;1.75;0.77;;;;;;;;;;5029023;28;20064;-58
2023/12/24 08:20:25;;;;;;;1.20;0.68;;;;;;;;;;5030309;28;20068;-57
2023/12/24 08:22:50;;;;;;;1.17;0.63;;;;;;;;;;5028144;28;20123;-57
2023/12/24 08:25:16;;;;;;;1.60;0.88;;;;;;;;;;5028757;28;20481;-57
2023/12/24 08:27:41;;;;;;;1.20;0.60;;;;;;;;;;5028660;28;20037;-57
2023/12/24 08:30:08;;;;;;;1.70;0.70;;;;;;;;;;5028151;28;20037;-57
2023/12/24 08:32:33;;;;;;;1.15;0.60;;;;;;;;;;5028222;28;20029;-56
2023/12/24 08:34:59;;;;;;;1.23;0.70;;;;;;;;;;5023946;28;20036;-57
2023/12/24 08:37:24;;;;;;;1.80;0.82;;;;;;;;;;5030551;28;20017;-57
2023/12/24 08:39:49;;;;;;;1.48;0.70;;;;;;;;;;5037224;28;20224;-57
2023/12/24 08:42:15;;;;;;;1.08;0.55;;;;;;;;;;5043470;28;20036;-57
2023/12/24 08:44:41;;;;;;;1.20;0.57;;;;;;;;;;5042531;28;20060;-57
2023/12/24 08:47:06;;;;;;;1.85;0.75;;;;;;;;;;5040533;28;20060;-57
2023/12/24 08:49:31;;;;;;;1.23;0.57;;;;;;;;;;5039972;28;20032;-57
2023/12/24 08:51:56;;;;;;;1.13;0.60;;;;;;;;;;5043499;28;20529;-57
2023/12/24 08:54:23;;;;;;;1.20;0.60;;;;;;;;;;5037570;28;20051;-57
2023/12/24 08:56:48;;;;;;;1.17;0.57;;;;;;;;;;5026719;28;20071;-57
2023/12/24 08:59:14;;;;;;;2.15;0.70;;;;;;;;;;5040737;28;20494;-56
2023/12/24 09:01:39;;;;;;;1.25;0.73;;;;;;;;;;5036516;28;20180;-56
2023/12/24 09:04:05;;;;;;;2.05;0.75;;;;;;;;;;5043530;28;20028;-56
2023/12/24 09:06:30;;;;;;;1.15;0.60;;;;;;;;;;5044452;28;20021;-56
2023/12/24 09:08:55;;;;;;;1.48;0.65;;;;;;;;;;5024055;28;20032;-57
2023/12/24 09:11:20;;;;;;;1.52;0.80;;;;;;;;;;5029719;28;20116;-57
2023/12/24 09:13:46;;;;;;;0.80;0.50;;;;;;;;;;5043635;28;20508;-57
2023/12/24 09:16:11;;;;;;;1.90;0.70;;;;;;;;;;5042996;28;20409;-56
2023/12/24 09:18:37;;;;;;;0.93;0.60;;;;;;;;;;5042516;28;20033;-56
2023/12/24 09:21:02;;;;;;;1.63;0.80;;;;;;;;;;5031662;28;20087;-57
2023/12/24 09:23:27;;;;;;;1.42;0.60;;;;;;;;;;5029697;28;20031;-57
2023/12/24 09:25:53;;;;;;;1.20;0.60;;;;;;;;;;5034902;28;20494;-57
2023/12/24 09:28:18;;;;;;;1.63;0.60;;;;;;;;;;5026200;28;20497;-57
2023/12/24 09:30:43;;;;;;;1.60;0.73;;;;;;;;;;5031910;28;20040;-56
2023/12/24 09:33:09;;;;;;;1.05;0.50;;;;;;;;;;5023358;28;20412;-57
2023/12/24 09:35:35;;;;;;;1.20;0.70;;;;;;;;;;5033648;28;20478;-56
2023/12/24 09:38:00;;;;;;;0.80;0.40;;;;;;;;;;5043628;28;20663;-57
2023/12/24 09:40:26;;;;;;;1.52;0.70;;;;;;;;;;5038989;28;20025;-57
2023/12/24 09:42:52;;;;;;;1.48;0.70;;;;;;;;;;5039119;28;20057;-55
2023/12/24 09:45:17;;;;;;;2.00;0.70;;;;;;;;;;5027309;28;20080;-56
2023/12/24 09:47:42;;;;;;;2.22;0.60;;;;;;;;;;5033641;28;20471;-57
2023/12/24 09:50:08;;;;;;;1.10;0.75;;;;;;;;;;5049680;28;20064;-56
2023/12/24 09:52:33;;;;;;;1.60;0.68;;;;;;;;;;5039642;28;20033;-57
2023/12/24 09:54:58;;;;;;;1.80;0.65;;;;;;;;;;5044082;28;20029;-57
2023/12/24 09:57:24;;;;;;;2.45;0.80;;;;;;;;;;5038995;28;20466;-57
2023/12/24 09:59:49;;;;;;;1.23;0.50;;;;;;;;;;5027126;28;20183;-57
2023/12/24 10:02:14;;;;;;;1.15;0.60;;;;;;;;;;5023655;28;20109;-57
2023/12/24 10:04:40;;;;;;;1.20;0.60;;;;;;;;;;5040427;28;20048;-56
2023/12/24 10:07:06;;;;;;;2.08;0.70;;;;;;;;;;5041033;28;20057;-57
2023/12/24 10:09:41;;;;;;;1.85;0.60;;;;;;;;;;5028540;28;20626;-56
2023/12/24 10:12:08;;;;;;;1.27;0.70;;;;;;;;;;5028642;28;20151;-56
2023/12/24 10:14:34;;;;;;;1.42;0.75;;;;;;;;;;5044019;28;20037;-56
2023/12/24 10:17:00;;;;;;;1.98;0.90;;;;;;;;;;5045793;28;20060;-56
2023/12/24 10:19:27;;;;;;;1.90;0.60;;;;;;;;;;5044016;28;20056;-55
2023/12/24 10:22:04;;;;;;;1.30;0.75;;;;;;;;;;5028015;28;20029;-56
2023/12/24 10:24:31;;;;;;;1.30;0.60;;;;;;;;;;5045247;28;20045;-56
2023/12/24 10:27:02;;;;;;;0.93;0.60;;;;;;;;;;5021471;28;20452;-56
2023/12/24 10:29:27;;;;;;;1.52;0.68;;;;;;;;;;5046005;28;20120;-56
2023/12/24 10:31:52;;;;;;;1.23;0.60;;;;;;;;;;5046733;28;20119;-56
2023/12/24 10:34:18;;;;;;;1.25;0.65;;;;;;;;;;5045259;28;20474;-56
2023/12/24 10:36:43;;;;;;;1.15;0.55;;;;;;;;;;5039006;28;20086;-57
2023/12/24 10:39:12;;;;;;;1.42;0.70;;;;;;;;;;5029198;28;20036;-56
2023/12/24 10:41:38;;;;;;;1.75;0.70;;;;;;;;;;5037087;28;20458;-56
2023/12/24 10:44:04;;;;;;;1.15;0.60;;;;;;;;;;5046480;28;20166;-56
2023/12/24 10:46:29;;;;;;;1.55;0.80;;;;;;;;;;5049843;28;20059;-56
2023/12/24 10:48:54;;;;;;;1.52;0.60;;;;;;;;;;5029413;28;20033;-56
2023/12/24 10:51:20;;;;;;;0.98;0.47;;;;;;;;;;5008808;28;20038;-57
2023/12/24 10:53:45;;;;;;;1.42;0.60;;;;;;;;;;5027000;28;20502;-57
2023/12/24 10:56:12;;;;;;;1.25;0.60;;;;;;;;;;5027048;28;20569;-57
2023/12/24 10:58:46;;;;;;;1.15;0.60;;;;;;;;;;5042908;28;20071;-57
2023/12/24 11:01:13;;;;;;;2.00;0.80;;;;;;;;;;5045373;28;20041;-56
2023/12/24 11:03:47;;;;;;;1.67;0.60;;;;;;;;;;5044929;28;20498;-57
2023/12/24 11:06:21;;;;;;;0.82;0.50;;;;;;;;;;5044556;28;20052;-57
2023/12/24 11:08:46;;;;;;;2.17;0.80;;;;;;;;;;5042287;28;20106;-57
2023/12/24 11:11:13;;;;;;;1.42;0.68;;;;;;;;;;5046652;28;20116;-57
2023/12/24 11:13:45;;;;;;;1.30;0.60;;;;;;;;;;5045636;28;20056;-55
2023/12/24 11:16:11;;;;;;;1.75;0.60;;;;;;;;;;5032619;28;20037;-57
2023/12/24 11:18:43;;;;;;;1.10;0.70;;;;;;;;;;5046049;28;20802;-57
2023/12/24 11:21:11;;;;;;;1.60;0.73;;;;;;;;;;5033131;28;20052;-57
2023/12/24 11:23:40;;;;;;;1.00;0.60;;;;;;;;;;5033369;28;20029;-56
2023/12/24 11:26:24;;;;;;;2.40;0.63;;;;;;;;;;5030717;28;20065;-57
2023/12/24 11:28:49;;;;;;;2.03;0.73;;;;;;;;;;5023571;28;20065;-57
2023/12/24 11:31:20;;;;;;;1.95;0.85;;;;;;;;;;5026065;28;20216;-57
2023/12/24 11:33:45;;;;;;;3.83;0.93;;;;;;;;;;5040807;28;20075;-57
2023/12/24 11:36:11;;;;;;;4.07;0.93;;;;;;;;;;5033047;28;20114;-56
2023/12/24 11:38:36;;;;;;;3.05;1.23;;;;;;;;;;5043188;28;20564;-57
2023/12/24 11:41:05;;;;;;;2.30;0.93;;;;;;;;;;5042254;28;20021;-57
2023/12/24 11:43:30;;;;;;;3.45;0.73;;;;;;;;;;5041743;28;20071;-56
2023/12/24 11:45:56;;;;;;;3.83;0.70;;;;;;;;;;5036001;28;20072;-56
2023/12/24 11:48:21;;;;;;;3.00;0.75;;;;;;;;;;5043871;28;20039;-56
2023/12/24 11:50:46;;;;;;;2.75;0.90;;;;;;;;;;5044430;28;20040;-57
2023/12/24 11:53:12;;;;;;;2.67;1.00;;;;;;;;;;5042634;28;20017;-57
2023/12/24 11:55:37;;;;;;;3.00;0.90;;;;;;;;;;5044352;28;20395;-57
2023/12/24 11:58:03;;;;;;;6.07;0.93;;;;;;;;;;5045604;28;20075;-57
2023/12/24 12:00:28;;;;;;;2.70;0.82;;;;;;;;;;5044107;28;20070;-57
2023/12/24 12:02:54;;;;;;;2.35;0.88;;;;;;;;;;5028018;28;20091;-57
2023/12/24 12:05:19;;;;;;;2.22;1.00;;;;;;;;;;5046076;28;20515;-57
2023/12/24 12:07:45;;;;;;;6.13;0.98;;;;;;;;;;5040822;28;20037;-58
2023/12/24 12:10:10;;;;;;;2.70;0.85;;;;;;;;;;5032683;28;20057;-58
2023/12/24 12:12:35;;;;;;;2.10;0.73;;;;;;;;;;5025840;28;20108;-58
2023/12/24 12:15:01;;;;;;;2.97;0.95;;;;;;;;;;5023854;28;20021;-58
2023/12/24 12:17:26;;;;;;;2.55;0.88;;;;;;;;;;5030907;28;20875;-58
2023/12/24 12:19:51;;;;;;;2.22;0.70;;;;;;;;;;5033483;28;20568;-58
2023/12/24 12:22:17;;;;;;;1.80;0.70;;;;;;;;;;5045374;28;20112;-58
2023/12/24 12:24:43;;;;;;;4.35;1.00;;;;;;;;;;5042741;28;20129;-58
2023/12/24 12:27:09;;;;;;;2.08;0.60;;;;;;;;;;5040083;28;20058;-59
2023/12/24 12:29:34;;;;;;;2.25;0.90;;;;;;;;;;5038838;28;20143;-57
2023/12/24 12:32:01;;;;;;;4.50;0.73;;;;;;;;;;5035920;28;20017;-58
2023/12/24 12:34:27;;;;;;;4.32;0.98;;;;;;;;;;5043658;28;20052;-57
2023/12/24 12:36:52;;;;;;;2.33;0.73;;;;;;;;;;5044595;28;20113;-57
2023/12/24 12:39:17;;;;;;;2.92;0.75;;;;;;;;;;5031046;28;20037;-57
2023/12/24 12:41:43;;;;;;;1.92;0.60;;;;;;;;;;5044511;28;20099;-57
2023/12/24 12:44:08;;;;;;;3.15;1.05;;;;;;;;;;5031952;28;20130;-57
2023/12/24 12:46:33;;;;;;;2.97;0.98;;;;;;;;;;5025134;28;20038;-58
2023/12/24 12:48:58;;;;;;;2.20;0.85;;;;;;;;;;5028832;28;20037;-57
2023/12/24 12:51:24;;;;;;;1.88;0.90;;;;;;;;;;5039893;28;20116;-57
2023/12/24 12:53:50;;;;;;;2.15;0.90;;;;;;;;;;5024620;28;20038;-57
2023/12/24 12:56:15;;;;;;;3.30;1.05;;;;;;;;;;5039904;28;20136;-57
2023/12/24 12:58:49;;;;;;;1.48;0.80;;;;;;;;;;5041024;28;20132;-58
2023/12/24 13:01:15;;;;;;;3.05;0.95;;;;;;;;;;5043929;28;20497;-57
2023/12/24 13:04:00;;;;;;;1.75;0.70;;;;;;;;;;5038020;28;20037;-58
2023/12/24 13:06:25;;;;;;;2.22;0.88;;;;;;;;;;5024581;28;20041;-58
2023/12/24 13:08:51;;;;;;;4.63;0.80;;;;;;;;;;5025276;28;20048;-58
2023/12/24 13:11:20;;;;;;;1.48;0.60;;;;;;;;;;5040559;28;20036;-59
2023/12/24 13:13:46;;;;;;;1.98;0.85;;;;;;;;;;5028088;28;20463;-57
2023/12/24 13:16:12;;;;;;;2.30;0.80;;;;;;;;;;5032098;28;20121;-58
2023/12/24 13:18:37;;;;;;;2.60;0.90;;;;;;;;;;5045315;28;20033;-58
2023/12/24 13:21:10;;;;;;;1.58;0.80;;;;;;;;;;5040917;28;20386;-59
2023/12/24 13:23:35;;;;;;;2.67;0.82;;;;;;;;;;5029196;28;20047;-58
2023/12/24 13:26:03;;;;;;;3.00;0.90;;;;;;;;;;5025193;28;20489;-58
2023/12/24 13:28:28;;;;;;;1.60;0.73;;;;;;;;;;5040533;28;20060;-59
2023/12/24 13:30:54;;;;;;;1.90;0.60;;;;;;;;;;5045216;28;20033;-56
2023/12/24 13:33:19;;;;;;;1.90;0.80;;;;;;;;;;5043777;28;20033;-57
2023/12/24 13:35:44;;;;;;;2.13;0.90;;;;;;;;;;5028295;28;20029;-58
2023/12/24 13:38:12;;;;;;;1.63;0.65;;;;;;;;;;5036554;28;20446;-58
2023/12/24 13:40:37;;;;;;;2.72;0.70;;;;;;;;;;5039563;28;20052;-58
2023/12/24 13:43:04;;;;;;;2.85;0.60;;;;;;;;;;5044932;28;20025;-58
2023/12/24 13:45:29;;;;;;;1.95;0.70;;;;;;;;;;5044763;28;20104;-58
2023/12/24 13:47:54;;;;;;;2.45;0.70;;;;;;;;;;5042753;28;20499;-58
2023/12/24 13:50:20;;;;;;;1.60;0.70;;;;;;;;;;5041142;28;20037;-58
2023/12/24 13:52:45;;;;;;;2.10;0.90;;;;;;;;;;5048467;28;20037;-58
2023/12/24 13:55:11;;;;;;;1.92;1.00;;;;;;;;;;5035224;28;20118;-59
2023/12/24 13:57:36;;;;;;;2.85;0.80;;;;;;;;;;5034181;28;20045;-59
2023/12/24 14:00:03;;;;;;;1.10;0.65;;;;;;;;;;5040757;28;20032;-59
2023/12/24 14:02:29;;;;;;;1.70;0.70;;;;;;;;;;5048976;28;20037;-59
2023/12/24 14:04:54;;;;;;;2.10;0.75;;;;;;;;;;5035347;28;20528;-59
2023/12/24 14:07:20;;;;;;;2.08;0.90;;;;;;;;;;5035320;28;20102;-59
2023/12/24 14:09:46;;;;;;;2.20;0.73;;;;;;;;;;5039899;28;20055;-58
2023/12/24 14:12:12;;;;;;;1.55;0.73;;;;;;;;;;5011584;28;20491;-58
2023/12/24 14:14:37;;;;;;;2.10;0.77;;;;;;;;;;5039005;28;20595;-58
2023/12/24 14:17:02;;;;;;;1.65;0.73;;;;;;;;;;5029102;28;20120;-58
2023/12/24 14:19:28;;;;;;;2.03;0.80;;;;;;;;;;5035053;28;20120;-61
2023/12/24 14:21:53;;;;;;;51.50;4.75;;;;;;;;;;5038794;28;20421;-58
2023/12/24 14:24:18;;;;;;;5.13;1.00;;;;;;;;;;5036251;28;20121;-58
2023/12/24 14:26:44;;;;;;;11.23;1.40;;;;;;;;;;5029314;28;20425;-58
2023/12/24 14:29:09;;;;;;;7.45;1.20;;;;;;;;;;5035293;28;20036;-58
2023/12/24 14:31:35;;;;;;;9.60;1.40;;;;;;;;;;5042632;28;20056;-58
2023/12/24 14:34:00;;;;;;;6.00;1.00;;;;;;;;;;5030256;28;20040;-58